sensor_id;sensor_type;location;lat;lon;timestamp;pressure;altitude;pressure_sealevel;temperature;humidity
23643;BME280;11998;55.788;37.572;2022-12-07T00:00:16;100211.31;;;-4.92;66.01
23643;BME280;11998;55.788;37.572;2022-12-07T00:02:19;100212.28;;;-4.90;65.81
23643;BME280;11998;55.788;37.572;2022-12-07T00:03:19;100201.28;;;-4.86;65.24
23643;BME280;11998;55.788;37.572;2022-12-07T00:04:20;100212.28;;;-4.90;64.99
23643;BME280;11998;55.788;37.572;2022-12-07T00:05:21;100207.34;;;-4.86;65.01
23643;BME280;11998;55.788;37.572;2022-12-07T00:06:21;100214.00;;;-4.91;64.99
23643;BME280;11998;55.788;37.572;2022-12-07T00:07:22;100203.44;;;-4.95;65.17
23643;BME280;11998;55.788;37.572;2022-12-07T00:08:22;100213.25;;;-4.88;64.78
23643;BME280;11998;55.788;37.572;2022-12-07T00:09:23;100208.97;;;-4.88;64.92
23643;BME280;11998;55.788;37.572;2022-12-07T00:10:23;100212.94;;;-4.94;65.08
23643;BME280;11998;55.788;37.572;2022-12-07T00:11:24;100203.72;;;-4.89;64.94
23643;BME280;11998;55.788;37.572;2022-12-07T00:12:24;100202.09;;;-4.87;64.84
23643;BME280;11998;55.788;37.572;2022-12-07T00:13:25;100208.91;;;-4.89;64.69
23643;BME280;11998;55.788;37.572;2022-12-07T00:14:25;100209.84;;;-4.87;65.59
23643;BME280;11998;55.788;37.572;2022-12-07T00:15:26;100207.59;;;-4.81;66.49
23643;BME280;11998;55.788;37.572;2022-12-07T00:16:28;100210.19;;;-4.81;66.98
23643;BME280;11998;55.788;37.572;2022-12-07T00:17:29;100204.63;;;-4.89;67.96
23643;BME280;11998;55.788;37.572;2022-12-07T00:18:30;100206.91;;;-4.95;68.46
23643;BME280;11998;55.788;37.572;2022-12-07T00:19:31;100202.75;;;-4.91;68.79
23643;BME280;11998;55.788;37.572;2022-12-07T00:20:31;100205.19;;;-4.94;69.86
23643;BME280;11998;55.788;37.572;2022-12-07T00:21:34;100198.47;;;-4.91;69.55
23643;BME280;11998;55.788;37.572;2022-12-07T00:22:35;100205.19;;;-4.94;70.39
23643;BME280;11998;55.788;37.572;2022-12-07T00:23:36;100204.94;;;-4.99;71.39
23643;BME280;11998;55.788;37.572;2022-12-07T00:24:37;100190.34;;;-4.98;71.50
23643;BME280;11998;55.788;37.572;2022-12-07T00:25:37;100204.56;;;-5.07;72.64
23643;BME280;11998;55.788;37.572;2022-12-07T00:26:39;100202.47;;;-5.14;73.24
23643;BME280;11998;55.788;37.572;2022-12-07T00:27:40;100203.06;;;-5.19;74.97
23643;BME280;11998;55.788;37.572;2022-12-07T00:28:41;100194.72;;;-5.14;74.20
23643;BME280;11998;55.788;37.572;2022-12-07T00:29:44;100205.72;;;-5.18;73.46
23643;BME280;11998;55.788;37.572;2022-12-07T00:30:45;100201.34;;;-5.19;73.84
23643;BME280;11998;55.788;37.572;2022-12-07T00:31:46;100208.28;;;-5.18;72.70
23643;BME280;11998;55.788;37.572;2022-12-07T00:32:46;100203.13;;;-5.18;71.66
23643;BME280;11998;55.788;37.572;2022-12-07T00:33:47;100199.59;;;-5.20;71.90
23643;BME280;11998;55.788;37.572;2022-12-07T00:34:48;100193.53;;;-5.20;73.18
23643;BME280;11998;55.788;37.572;2022-12-07T00:35:55;100194.56;;;-5.17;71.26
23643;BME280;11998;55.788;37.572;2022-12-07T00:36:55;100202.16;;;-5.20;72.24
23643;BME280;11998;55.788;37.572;2022-12-07T00:37:56;100199.41;;;-5.23;72.65
23643;BME280;11998;55.788;37.572;2022-12-07T00:38:59;100204.56;;;-5.23;73.48
23643;BME280;11998;55.788;37.572;2022-12-07T00:40:00;100200.88;;;-5.28;72.34
23643;BME280;11998;55.788;37.572;2022-12-07T00:41:03;100206.03;;;-5.28;71.74
23643;BME280;11998;55.788;37.572;2022-12-07T00:42:04;100208.91;;;-5.22;71.79
23643;BME280;11998;55.788;37.572;2022-12-07T00:43:05;100204.25;;;-5.29;71.95
23643;BME280;11998;55.788;37.572;2022-12-07T00:44:05;100213.13;;;-5.24;71.65
23643;BME280;11998;55.788;37.572;2022-12-07T00:45:06;100211.41;;;-5.23;71.63
23643;BME280;11998;55.788;37.572;2022-12-07T00:46:08;100210.59;;;-5.22;71.64
23643;BME280;11998;55.788;37.572;2022-12-07T00:47:08;100218.13;;;-5.27;72.03
23643;BME280;11998;55.788;37.572;2022-12-07T00:48:09;100205.22;;;-5.27;71.23
23643;BME280;11998;55.788;37.572;2022-12-07T00:49:09;100204.09;;;-5.32;71.39
23643;BME280;11998;55.788;37.572;2022-12-07T00:50:10;100205.69;;;-5.34;71.21
23643;BME280;11998;55.788;37.572;2022-12-07T00:51:15;100217.97;;;-5.30;71.90
23643;BME280;11998;55.788;37.572;2022-12-07T00:52:16;100203.38;;;-5.29;70.47
23643;BME280;11998;55.788;37.572;2022-12-07T00:53:17;100212.97;;;-5.27;70.96
23643;BME280;11998;55.788;37.572;2022-12-07T00:54:17;100211.19;;;-5.28;71.18
23643;BME280;11998;55.788;37.572;2022-12-07T00:55:18;100197.47;;;-5.27;70.98
23643;BME280;11998;55.788;37.572;2022-12-07T00:56:23;100209.56;;;-5.26;71.38
23643;BME280;11998;55.788;37.572;2022-12-07T00:57:24;100200.88;;;-5.28;70.80
23643;BME280;11998;55.788;37.572;2022-12-07T00:58:25;100206.03;;;-5.28;70.64
23643;BME280;11998;55.788;37.572;2022-12-07T00:59:25;100194.88;;;-5.27;70.90
23643;BME280;11998;55.788;37.572;2022-12-07T01:00:26;100201.25;;;-5.37;70.55
23643;BME280;11998;55.788;37.572;2022-12-07T01:01:29;100205.88;;;-5.31;71.78
23643;BME280;11998;55.788;37.572;2022-12-07T01:02:30;100203.28;;;-5.31;71.47
23643;BME280;11998;55.788;37.572;2022-12-07T01:03:31;100198.69;;;-5.37;72.05
23643;BME280;11998;55.788;37.572;2022-12-07T01:04:33;100202.94;;;-5.37;71.66
23643;BME280;11998;55.788;37.572;2022-12-07T01:05:34;100196.44;;;-5.30;70.13
23643;BME280;11998;55.788;37.572;2022-12-07T01:06:35;100204.09;;;-5.32;71.38
23643;BME280;11998;55.788;37.572;2022-12-07T01:07:37;100213.69;;;-5.29;71.43
23643;BME280;11998;55.788;37.572;2022-12-07T01:08:38;100209.41;;;-5.29;70.57
23643;BME280;11998;55.788;37.572;2022-12-07T01:09:38;100195.38;;;-5.34;70.08
23643;BME280;11998;55.788;37.572;2022-12-07T01:10:39;100209.06;;;-5.35;70.80
23643;BME280;11998;55.788;37.572;2022-12-07T01:11:39;100200.38;;;-5.37;71.63
23643;BME280;11998;55.788;37.572;2022-12-07T01:12:40;100212.47;;;-5.36;72.43
23643;BME280;11998;55.788;37.572;2022-12-07T01:13:41;100212.47;;;-5.36;72.73
23643;BME280;11998;55.788;37.572;2022-12-07T01:14:42;100207.22;;;-5.38;72.92
23643;BME280;11998;55.788;37.572;2022-12-07T01:15:44;100201.69;;;-5.45;73.71
23643;BME280;11998;55.788;37.572;2022-12-07T01:16:44;100207.38;;;-5.51;74.12
23643;BME280;11998;55.788;37.572;2022-12-07T01:17:45;100210.03;;;-5.49;75.01
23643;BME280;11998;55.788;37.572;2022-12-07T01:18:47;100216.81;;;-5.51;75.11
23643;BME280;11998;55.788;37.572;2022-12-07T01:19:48;100202.97;;;-5.53;74.77
23643;BME280;11998;55.788;37.572;2022-12-07T01:22:21;100201.81;;;-5.58;75.12
23643;BME280;11998;55.788;37.572;2022-12-07T01:23:22;100204.22;;;-5.62;76.82
23643;BME280;11998;55.788;37.572;2022-12-07T01:24:22;100203.72;;;-5.71;78.49
23643;BME280;11998;55.788;37.572;2022-12-07T01:25:23;100208.41;;;-5.80;80.14
23643;BME280;11998;55.788;37.572;2022-12-07T01:26:24;100204.88;;;-5.82;80.51
23643;BME280;11998;55.788;37.572;2022-12-07T01:27:25;100205.91;;;-5.78;79.21
23643;BME280;11998;55.788;37.572;2022-12-07T01:28:26;100211.16;;;-5.93;80.10
23643;BME280;11998;55.788;37.572;2022-12-07T01:29:27;100216.94;;;-5.97;81.31
23643;BME280;11998;55.788;37.572;2022-12-07T01:30:27;100199.22;;;-5.91;81.04
23643;BME280;11998;55.788;37.572;2022-12-07T01:31:28;100199.22;;;-5.91;82.29
23643;BME280;11998;55.788;37.572;2022-12-07T01:32:29;100204.50;;;-5.88;82.79
23643;BME280;11998;55.788;37.572;2022-12-07T01:33:33;100193.19;;;-5.92;83.41
23643;BME280;11998;55.788;37.572;2022-12-07T01:34:33;100203.63;;;-5.88;84.30
23643;BME280;11998;55.788;37.572;2022-12-07T01:35:34;100195.69;;;-5.93;85.43
23643;BME280;11998;55.788;37.572;2022-12-07T01:36:35;100205.81;;;-5.96;85.98
23643;BME280;11998;55.788;37.572;2022-12-07T01:37:37;100206.81;;;-5.94;85.32
23643;BME280;11998;55.788;37.572;2022-12-07T01:38:39;100199.28;;;-6.06;86.81
23643;BME280;11998;55.788;37.572;2022-12-07T01:39:39;100198.41;;;-6.06;87.12
23643;BME280;11998;55.788;37.572;2022-12-07T01:40:41;100216.31;;;-6.08;88.20
23643;BME280;11998;55.788;37.572;2022-12-07T01:41:42;100190.66;;;-6.06;88.08
23643;BME280;11998;55.788;37.572;2022-12-07T01:42:43;100200.16;;;-6.05;88.03
23643;BME280;11998;55.788;37.572;2022-12-07T01:44:08;100201.84;;;-6.06;88.48
23643;BME280;11998;55.788;37.572;2022-12-07T01:46:18;100196.44;;;-6.10;88.43
23643;BME280;11998;55.788;37.572;2022-12-07T01:47:19;100201.41;;;-6.13;89.22
23643;BME280;11998;55.788;37.572;2022-12-07T01:48:40;100194.66;;;-6.11;89.74
23643;BME280;11998;55.788;37.572;2022-12-07T01:49:44;100193.53;;;-6.16;87.79
23643;BME280;11998;55.788;37.572;2022-12-07T01:50:48;100188.59;;;-6.12;84.76
23643;BME280;11998;55.788;37.572;2022-12-07T01:51:52;100189.50;;;-6.11;85.45
23643;BME280;11998;55.788;37.572;2022-12-07T01:52:56;100197.31;;;-6.10;85.58
23643;BME280;11998;55.788;37.572;2022-12-07T01:53:58;100191.19;;;-6.12;86.77
23643;BME280;11998;55.788;37.572;2022-12-07T01:55:03;100184.91;;;-6.17;87.16
23643;BME280;11998;55.788;37.572;2022-12-07T01:56:05;100190.31;;;-6.12;84.58
23643;BME280;11998;55.788;37.572;2022-12-07T01:57:08;100194.66;;;-6.11;85.50
23643;BME280;11998;55.788;37.572;2022-12-07T01:58:10;100191.09;;;-6.13;86.27
23643;BME280;11998;55.788;37.572;2022-12-07T01:59:13;100190.47;;;-6.09;86.54
23643;BME280;11998;55.788;37.572;2022-12-07T02:00:14;100180.78;;;-6.13;86.62
23643;BME280;11998;55.788;37.572;2022-12-07T02:01:15;100192.56;;;-6.18;86.84
23643;BME280;11998;55.788;37.572;2022-12-07T02:02:20;100189.66;;;-6.08;84.76
23643;BME280;11998;55.788;37.572;2022-12-07T02:03:31;100180.47;;;-6.19;85.81
23643;BME280;11998;55.788;37.572;2022-12-07T02:04:32;100187.56;;;-6.15;86.01
23643;BME280;11998;55.788;37.572;2022-12-07T02:05:35;100195.47;;;-6.12;86.47
23643;BME280;11998;55.788;37.572;2022-12-07T02:06:37;100181.69;;;-6.13;84.44
23643;BME280;11998;55.788;37.572;2022-12-07T02:07:38;100184.34;;;-6.11;84.71
23643;BME280;11998;55.788;37.572;2022-12-07T02:08:39;100173.22;;;-6.10;85.69
23643;BME280;11998;55.788;37.572;2022-12-07T02:09:40;100194.66;;;-6.11;86.34
23643;BME280;11998;55.788;37.572;2022-12-07T02:10:41;100182.56;;;-6.12;86.64
23643;BME280;11998;55.788;37.572;2022-12-07T02:11:41;100172.25;;;-6.12;86.01
23643;BME280;11998;55.788;37.572;2022-12-07T02:12:46;100187.56;;;-6.15;86.38
23643;BME280;11998;55.788;37.572;2022-12-07T02:13:48;100189.16;;;-6.17;86.30
23643;BME280;11998;55.788;37.572;2022-12-07T02:14:49;100185.06;;;-6.14;85.59
23643;BME280;11998;55.788;37.572;2022-12-07T02:17:25;100187.63;;;-6.14;86.25
23643;BME280;11998;55.788;37.572;2022-12-07T02:21:48;100190.78;;;-6.19;85.47
23643;BME280;11998;55.788;37.572;2022-12-07T02:28:29;100177.53;;;-6.26;87.17
23643;BME280;11998;55.788;37.572;2022-12-07T02:30:42;100178.34;;;-6.27;87.89
23643;BME280;11998;55.788;37.572;2022-12-07T02:33:45;100187.59;;;-6.30;87.99
23643;BME280;11998;55.788;37.572;2022-12-07T02:34:55;100178.19;;;-6.30;88.52
23643;BME280;11998;55.788;37.572;2022-12-07T02:37:01;100182.53;;;-6.29;90.27
23643;BME280;11998;55.788;37.572;2022-12-07T02:39:47;100178.97;;;-6.31;90.83
23643;BME280;11998;55.788;37.572;2022-12-07T02:42:14;100168.31;;;-6.37;91.88
23643;BME280;11998;55.788;37.572;2022-12-07T02:43:22;100175.31;;;-6.34;92.93
23643;BME280;11998;55.788;37.572;2022-12-07T02:44:26;100171.06;;;-6.34;91.88
23643;BME280;11998;55.788;37.572;2022-12-07T02:45:29;100184.59;;;-6.38;92.28
23643;BME280;11998;55.788;37.572;2022-12-07T02:46:40;100175.88;;;-6.40;92.92
23643;BME280;11998;55.788;37.572;2022-12-07T02:47:43;100163.97;;;-6.38;92.73
23643;BME280;11998;55.788;37.572;2022-12-07T02:48:45;100196.66;;;-6.37;93.36
23643;BME280;11998;55.788;37.572;2022-12-07T02:49:46;100174.28;;;-6.38;93.39
23643;BME280;11998;55.788;37.572;2022-12-07T02:50:51;100184.41;;;-6.41;93.71
23643;BME280;11998;55.788;37.572;2022-12-07T02:51:53;100167.91;;;-6.44;94.08
23643;BME280;11998;55.788;37.572;2022-12-07T02:52:54;100173.94;;;-6.44;94.60
23643;BME280;11998;55.788;37.572;2022-12-07T02:53:54;100176.41;;;-6.45;95.27
23643;BME280;11998;55.788;37.572;2022-12-07T02:54:55;100170.38;;;-6.46;95.54
23643;BME280;11998;55.788;37.572;2022-12-07T02:55:55;100173.06;;;-6.44;95.52
23643;BME280;11998;55.788;37.572;2022-12-07T02:59:46;100172.63;;;-6.52;95.88
23643;BME280;11998;55.788;37.572;2022-12-07T03:01:04;100180.50;;;-6.49;96.22
23643;BME280;11998;55.788;37.572;2022-12-07T03:03:10;100176.06;;;-6.52;96.44
23643;BME280;11998;55.788;37.572;2022-12-07T03:03:48;100169.22;;;-6.51;96.20
23643;BME280;11998;55.788;37.572;2022-12-07T03:06:27;100173.41;;;-6.53;96.90
23643;BME280;11998;55.788;37.572;2022-12-07T03:10:09;100171.47;;;-6.57;97.93
23643;BME280;11998;55.788;37.572;2022-12-07T03:11:29;100169.66;;;-6.58;98.14
23643;BME280;11998;55.788;37.572;2022-12-07T03:12:45;100178.19;;;-6.59;98.23
23643;BME280;11998;55.788;37.572;2022-12-07T03:14:23;100171.28;;;-6.60;99.12
23643;BME280;11998;55.788;37.572;2022-12-07T03:15:23;100167.72;;;-6.62;99.11
23643;BME280;11998;55.788;37.572;2022-12-07T03:16:28;100165.06;;;-6.64;99.52
23643;BME280;11998;55.788;37.572;2022-12-07T03:17:33;100172.88;;;-6.62;99.87
23643;BME280;11998;55.788;37.572;2022-12-07T03:18:39;100175.47;;;-6.62;99.84
23643;BME280;11998;55.788;37.572;2022-12-07T03:19:42;100169.50;;;-6.61;100.00
23643;BME280;11998;55.788;37.572;2022-12-07T03:20:45;100171.28;;;-6.60;100.00
23643;BME280;11998;55.788;37.572;2022-12-07T03:22:04;100177.31;;;-6.60;100.00
23643;BME280;11998;55.788;37.572;2022-12-07T03:23:07;100171.28;;;-6.60;100.00
23643;BME280;11998;55.788;37.572;2022-12-07T03:24:14;100169.66;;;-6.58;100.00
23643;BME280;11998;55.788;37.572;2022-12-07T03:25:17;100171.28;;;-6.60;100.00
23643;BME280;11998;55.788;37.572;2022-12-07T03:26:18;100174.66;;;-6.61;100.00
23643;BME280;11998;55.788;37.572;2022-12-07T03:27:38;100173.25;;;-6.56;100.00
23643;BME280;11998;55.788;37.572;2022-12-07T03:28:42;100180.19;;;-6.55;100.00
23643;BME280;11998;55.788;37.572;2022-12-07T03:30:59;100176.63;;;-6.57;100.00
23643;BME280;11998;55.788;37.572;2022-12-07T03:32:06;100169.50;;;-6.61;100.00
23643;BME280;11998;55.788;37.572;2022-12-07T03:34:29;100169.34;;;-6.64;100.00
23643;BME280;11998;55.788;37.572;2022-12-07T03:35:40;100170.31;;;-6.62;100.00
23643;BME280;11998;55.788;37.572;2022-12-07T03:36:47;100174.50;;;-6.64;100.00
23643;BME280;11998;55.788;37.572;2022-12-07T03:37:56;100169.16;;;-6.67;100.00
23643;BME280;11998;55.788;37.572;2022-12-07T03:39:07;100169.34;;;-6.64;100.00
23643;BME280;11998;55.788;37.572;2022-12-07T03:40:15;100172.63;;;-6.67;100.00
23643;BME280;11998;55.788;37.572;2022-12-07T03:41:25;100171.53;;;-6.70;100.00
23643;BME280;11998;55.788;37.572;2022-12-07T03:42:27;100166.22;;;-6.73;100.00
23643;BME280;11998;55.788;37.572;2022-12-07T03:43:29;100172.34;;;-6.71;100.00
23643;BME280;11998;55.788;37.572;2022-12-07T03:44:31;100167.91;;;-6.74;100.00
23643;BME280;11998;55.788;37.572;2022-12-07T03:45:40;100172.00;;;-6.77;100.00
23643;BME280;11998;55.788;37.572;2022-12-07T03:48:04;100168.47;;;-6.79;100.00
23643;BME280;11998;55.788;37.572;2022-12-07T03:50:31;100170.06;;;-6.82;100.00
23643;BME280;11998;55.788;37.572;2022-12-07T03:53:14;100167.38;;;-6.83;100.00
23643;BME280;11998;55.788;37.572;2022-12-07T03:54:24;100160.38;;;-6.86;100.00
23643;BME280;11998;55.788;37.572;2022-12-07T03:55:29;100156.81;;;-6.88;100.00
23643;BME280;11998;55.788;37.572;2022-12-07T03:56:31;100154.25;;;-6.88;100.00
23643;BME280;11998;55.788;37.572;2022-12-07T03:57:34;100157.78;;;-6.86;100.00
23643;BME280;11998;55.788;37.572;2022-12-07T03:58:36;100162.78;;;-6.89;100.00
23643;BME280;11998;55.788;37.572;2022-12-07T03:59:38;100179.19;;;-6.87;100.00
23643;BME280;11998;55.788;37.572;2022-12-07T04:00:40;100163.56;;;-6.90;100.00
23643;BME280;11998;55.788;37.572;2022-12-07T04:01:43;100174.69;;;-6.91;100.00
23643;BME280;11998;55.788;37.572;2022-12-07T04:02:44;100169.53;;;-6.91;100.00
23643;BME280;11998;55.788;37.572;2022-12-07T04:03:44;100178.78;;;-6.94;100.00
23643;BME280;11998;55.788;37.572;2022-12-07T04:04:45;100175.28;;;-6.95;100.00
23643;BME280;11998;55.788;37.572;2022-12-07T04:05:45;100172.53;;;-6.98;100.00
23643;BME280;11998;55.788;37.572;2022-12-07T04:06:46;100175.03;;;-6.99;100.00
23643;BME280;11998;55.788;37.572;2022-12-07T04:07:47;100175.72;;;-7.02;100.00
23643;BME280;11998;55.788;37.572;2022-12-07T04:08:47;100168.63;;;-7.06;100.00
23643;BME280;11998;55.788;37.572;2022-12-07T04:09:48;100160.28;;;-7.02;100.00
23643;BME280;11998;55.788;37.572;2022-12-07T04:10:48;100163.84;;;-7.00;100.00
23643;BME280;11998;55.788;37.572;2022-12-07T04:11:49;100166.50;;;-6.98;100.00
23643;BME280;11998;55.788;37.572;2022-12-07T04:12:49;100168.25;;;-6.97;100.00
23643;BME280;11998;55.788;37.572;2022-12-07T04:13:50;100172.34;;;-7.01;100.00
23643;BME280;11998;55.788;37.572;2022-12-07T04:15:10;100157.72;;;-7.02;100.00
23643;BME280;11998;55.788;37.572;2022-12-07T04:16:10;100164.72;;;-6.99;100.00
23643;BME280;11998;55.788;37.572;2022-12-07T04:17:11;100162.94;;;-7.00;100.00
23643;BME280;11998;55.788;37.572;2022-12-07T04:18:11;100172.19;;;-7.04;100.00
23643;BME280;11998;55.788;37.572;2022-12-07T04:19:12;100164.88;;;-7.11;100.00
23643;BME280;11998;55.788;37.572;2022-12-07T04:20:13;100157.97;;;-7.12;100.00
23643;BME280;11998;55.788;37.572;2022-12-07T04:21:13;100160.47;;;-7.14;100.00
23643;BME280;11998;55.788;37.572;2022-12-07T04:22:13;100161.34;;;-7.13;100.00
23643;BME280;11998;55.788;37.572;2022-12-07T04:23:14;100157.78;;;-7.15;100.00
23643;BME280;11998;55.788;37.572;2022-12-07T04:24:15;100159.47;;;-7.16;100.00
23643;BME280;11998;55.788;37.572;2022-12-07T04:25:16;100152.66;;;-7.15;100.00
23643;BME280;11998;55.788;37.572;2022-12-07T04:26:17;100158.59;;;-7.16;100.00
23643;BME280;11998;55.788;37.572;2022-12-07T04:27:17;100161.09;;;-7.18;100.00
23643;BME280;11998;55.788;37.572;2022-12-07T04:28:18;100158.69;;;-7.15;100.00
23643;BME280;11998;55.788;37.572;2022-12-07T04:29:18;100165.50;;;-7.15;100.00
23643;BME280;11998;55.788;37.572;2022-12-07T04:30:19;100162.94;;;-7.15;100.00
23643;BME280;11998;55.788;37.572;2022-12-07T04:31:19;100163.75;;;-7.16;100.00
23643;BME280;11998;55.788;37.572;2022-12-07T04:32:20;100158.69;;;-7.15;100.00
23643;BME280;11998;55.788;37.572;2022-12-07T04:33:20;100149.09;;;-7.17;100.00
23643;BME280;11998;55.788;37.572;2022-12-07T04:34:21;100161.16;;;-7.16;100.00
23643;BME280;11998;55.788;37.572;2022-12-07T04:35:22;100155.22;;;-7.15;100.00
23643;BME280;11998;55.788;37.572;2022-12-07T04:36:22;100154.25;;;-7.17;100.00
23643;BME280;11998;55.788;37.572;2022-12-07T04:37:23;100155.84;;;-7.19;100.00
23643;BME280;11998;55.788;37.572;2022-12-07T04:38:24;100152.28;;;-7.21;100.00
23643;BME280;11998;55.788;37.572;2022-12-07T04:39:27;100159.03;;;-7.23;100.00
23643;BME280;11998;55.788;37.572;2022-12-07T04:40:27;100150.50;;;-7.22;100.00
23643;BME280;11998;55.788;37.572;2022-12-07T04:41:28;100149.44;;;-7.26;100.00
23643;BME280;11998;55.788;37.572;2022-12-07T04:42:28;100153.69;;;-7.26;100.00
23643;BME280;11998;55.788;37.572;2022-12-07T04:43:29;100155.31;;;-7.28;100.00
23643;BME280;11998;55.788;37.572;2022-12-07T04:44:30;100156.09;;;-7.29;100.00
23643;BME280;11998;55.788;37.572;2022-12-07T04:45:30;100147.41;;;-7.31;100.00
23643;BME280;11998;55.788;37.572;2022-12-07T04:46:31;100152.44;;;-7.33;100.00
23643;BME280;11998;55.788;37.572;2022-12-07T04:47:32;100154.03;;;-7.35;100.00
23643;BME280;11998;55.788;37.572;2022-12-07T04:48:32;100161.66;;;-7.36;100.00
23643;BME280;11998;55.788;37.572;2022-12-07T04:49:33;100152.09;;;-7.39;100.00
23643;BME280;11998;55.788;37.572;2022-12-07T04:50:35;100150.22;;;-7.42;100.00
23643;BME280;11998;55.788;37.572;2022-12-07T04:51:35;100148.44;;;-7.43;100.00
23643;BME280;11998;55.788;37.572;2022-12-07T04:52:36;100164.69;;;-7.44;100.00
23643;BME280;11998;55.788;37.572;2022-12-07T04:53:36;100157.06;;;-7.42;100.00
23643;BME280;11998;55.788;37.572;2022-12-07T04:54:37;100163.97;;;-7.41;100.00
23643;BME280;11998;55.788;37.572;2022-12-07T04:55:37;100160.22;;;-7.46;100.00
23643;BME280;11998;55.788;37.572;2022-12-07T04:56:38;100153.38;;;-7.46;100.00
23643;BME280;11998;55.788;37.572;2022-12-07T04:57:39;100163.69;;;-7.46;100.00
23643;BME280;11998;55.788;37.572;2022-12-07T04:58:39;100156.56;;;-7.50;100.00
23643;BME280;11998;55.788;37.572;2022-12-07T04:59:40;100160.75;;;-7.52;100.00
23643;BME280;11998;55.788;37.572;2022-12-07T05:00:41;100152.84;;;-7.55;100.00
23643;BME280;11998;55.788;37.572;2022-12-07T05:01:41;100152.84;;;-7.55;100.00
23643;BME280;11998;55.788;37.572;2022-12-07T05:02:42;100165.50;;;-7.58;100.00
23643;BME280;11998;55.788;37.572;2022-12-07T05:03:42;100161.97;;;-7.60;100.00
23643;BME280;11998;55.788;37.572;2022-12-07T05:04:43;100163.06;;;-7.56;100.00
23643;BME280;11998;55.788;37.572;2022-12-07T05:05:44;100157.00;;;-7.57;100.00
23643;BME280;11998;55.788;37.572;2022-12-07T05:06:44;100166.38;;;-7.57;100.00
23643;BME280;11998;55.788;37.572;2022-12-07T05:07:45;100150.19;;;-7.56;100.00
23643;BME280;11998;55.788;37.572;2022-12-07T05:08:45;100151.84;;;-7.57;100.00
23643;BME280;11998;55.788;37.572;2022-12-07T05:09:46;100159.69;;;-7.55;100.00
23643;BME280;11998;55.788;37.572;2022-12-07T05:10:48;100157.91;;;-7.56;100.00
23643;BME280;11998;55.788;37.572;2022-12-07T05:11:49;100159.69;;;-7.55;100.00
23643;BME280;11998;55.788;37.572;2022-12-07T05:12:50;100160.56;;;-7.55;100.00
23643;BME280;11998;55.788;37.572;2022-12-07T05:13:50;100155.22;;;-7.58;100.00
23643;BME280;11998;55.788;37.572;2022-12-07T05:14:50;100172.06;;;-7.63;100.00
23643;BME280;11998;55.788;37.572;2022-12-07T05:15:51;100158.41;;;-7.62;100.00
23643;BME280;11998;55.788;37.572;2022-12-07T05:16:52;100156.63;;;-7.63;100.00
23643;BME280;11998;55.788;37.572;2022-12-07T05:17:53;100164.09;;;-7.67;100.00
23643;BME280;11998;55.788;37.572;2022-12-07T05:18:54;100168.34;;;-7.68;100.00
23643;BME280;11998;55.788;37.572;2022-12-07T05:19:55;100160.63;;;-7.68;100.00
23643;BME280;11998;55.788;37.572;2022-12-07T05:20:55;100166.53;;;-7.69;100.00
23643;BME280;11998;55.788;37.572;2022-12-07T05:21:56;100157.84;;;-7.71;100.00
23643;BME280;11998;55.788;37.572;2022-12-07T05:22:57;100161.03;;;-7.75;100.00
23643;BME280;11998;55.788;37.572;2022-12-07T05:23:58;100161.84;;;-7.76;100.00
23643;BME280;11998;55.788;37.572;2022-12-07T05:24:59;100154.13;;;-7.76;100.00
23643;BME280;11998;55.788;37.572;2022-12-07T05:25:59;100164.22;;;-7.79;100.00
23643;BME280;11998;55.788;37.572;2022-12-07T05:27:00;100159.06;;;-7.79;100.00
23643;BME280;11998;55.788;37.572;2022-12-07T05:28:00;100161.66;;;-7.79;100.00
23643;BME280;11998;55.788;37.572;2022-12-07T05:29:01;100156.41;;;-7.81;100.00
23643;BME280;11998;55.788;37.572;2022-12-07T05:30:02;100169.16;;;-7.82;100.00
23643;BME280;11998;55.788;37.572;2022-12-07T05:31:03;100169.94;;;-7.83;100.00
23643;BME280;11998;55.788;37.572;2022-12-07T05:32:04;100165.81;;;-7.81;100.00
23643;BME280;11998;55.788;37.572;2022-12-07T05:33:04;100159.66;;;-7.83;100.00
23643;BME280;11998;55.788;37.572;2022-12-07T05:34:05;100170.97;;;-7.81;100.00
23643;BME280;11998;55.788;37.572;2022-12-07T05:35:06;100162.44;;;-7.80;100.00
23643;BME280;11998;55.788;37.572;2022-12-07T05:36:07;100163.03;;;-7.84;100.00
23643;BME280;11998;55.788;37.572;2022-12-07T05:37:07;100158.88;;;-7.82;100.00
23643;BME280;11998;55.788;37.572;2022-12-07T05:38:08;100156.91;;;-7.86;100.00
23643;BME280;11998;55.788;37.572;2022-12-07T05:39:08;100158.50;;;-7.88;100.00
23643;BME280;11998;55.788;37.572;2022-12-07T05:40:09;100156.34;;;-7.95;100.00
23643;BME280;11998;55.788;37.572;2022-12-07T05:41:13;100166.72;;;-7.94;100.00
23643;BME280;11998;55.788;37.572;2022-12-07T05:42:34;100157.13;;;-7.96;100.00
23643;BME280;11998;55.788;37.572;2022-12-07T05:43:34;100161.47;;;-7.95;100.00
23643;BME280;11998;55.788;37.572;2022-12-07T05:44:35;100171.75;;;-7.95;100.00
23643;BME280;11998;55.788;37.572;2022-12-07T05:45:36;100156.16;;;-7.99;100.00
23643;BME280;11998;55.788;37.572;2022-12-07T05:46:37;100156.25;;;-7.97;100.00
23643;BME280;11998;55.788;37.572;2022-12-07T05:47:37;100158.63;;;-8.00;100.00
23643;BME280;11998;55.788;37.572;2022-12-07T05:48:38;100166.63;;;-7.95;100.00
23643;BME280;11998;55.788;37.572;2022-12-07T05:49:38;100162.09;;;-8.00;100.00
23643;BME280;11998;55.788;37.572;2022-12-07T05:50:39;100148.53;;;-7.97;100.00
23643;BME280;11998;55.788;37.572;2022-12-07T05:51:39;100161.19;;;-8.00;100.00
23643;BME280;11998;55.788;37.572;2022-12-07T05:52:40;100155.09;;;-8.02;100.00
23643;BME280;11998;55.788;37.572;2022-12-07T05:53:40;100149.25;;;-8.00;100.00
23643;BME280;11998;55.788;37.572;2022-12-07T05:54:41;100153.59;;;-7.99;100.00
23643;BME280;11998;55.788;37.572;2022-12-07T05:55:42;100156.88;;;-8.01;100.00